createdAt,value
2018-05-25T00:00:13.999Z,30.80
2018-05-25T00:02:41.608Z,31.97
2018-05-25T00:05:09.312Z,32.03
2018-05-25T00:07:38.880Z,33.40
2018-05-25T00:10:07.475Z,34.70
2018-05-25T00:12:35.485Z,31.07
2018-05-25T00:15:04.485Z,32.70
2018-05-25T00:17:32.027Z,31.43
2018-05-25T00:19:59.725Z,33.33
2018-05-25T00:22:28.168Z,34.17
2018-05-25T00:24:56.832Z,33.00
2018-05-25T00:27:24.550Z,31.80
2018-05-25T00:29:52.075Z,33.40
2018-05-25T00:32:19.741Z,34.33
2018-05-25T00:34:47.308Z,36.77
2018-05-25T00:37:14.954Z,35.17
2018-05-25T00:39:42.560Z,34.57
2018-05-25T00:42:10.090Z,35.50
2018-05-25T00:44:37.598Z,34.97
2018-05-25T00:47:05.117Z,34.57
2018-05-25T00:49:32.641Z,34.63
2018-05-25T00:52:04.339Z,36.27
2018-05-25T00:54:37.528Z,33.67
2018-05-25T00:57:06.385Z,34.53
2018-05-25T00:59:34.155Z,35.00
2018-05-25T01:02:01.841Z,36.13
2018-05-25T01:04:30.495Z,34.00
2018-05-25T01:06:58.078Z,34.73
2018-05-25T01:09:25.775Z,36.67
2018-05-25T01:11:53.347Z,38.07
2018-05-25T01:14:20.864Z,34.70
2018-05-25T01:16:48.499Z,36.80
2018-05-25T01:19:16.019Z,35.30
2018-05-25T01:21:44.401Z,34.63
2018-05-25T01:24:12.924Z,36.03
2018-05-25T01:26:40.525Z,33.33
2018-05-25T01:29:09.024Z,40.10
2018-05-25T01:31:36.551Z,36.63
2018-05-25T01:34:04.067Z,35.47
2018-05-25T01:36:32.401Z,36.10
2018-05-25T01:39:00.904Z,37.00
2018-05-25T01:41:29.356Z,34.70
2018-05-25T01:43:56.879Z,38.30
2018-05-25T01:46:25.331Z,36.43
2018-05-25T01:48:52.845Z,34.60
2018-05-25T01:51:20.355Z,36.77
2018-05-25T01:53:47.973Z,37.00
2018-05-25T01:56:15.545Z,39.77
2018-05-25T01:58:43.067Z,40.60
2018-05-25T02:01:10.591Z,41.70
2018-05-25T02:03:38.295Z,37.37
2018-05-25T02:06:05.823Z,36.43
2018-05-25T02:08:34.123Z,40.57
2018-05-25T02:11:01.716Z,38.47
2018-05-25T02:13:30.063Z,39.97
2018-05-25T02:15:57.584Z,38.17
2018-05-25T02:18:25.265Z,40.10
2018-05-25T02:20:53.551Z,39.87
2018-05-25T02:25:55.862Z,42.20
2018-05-25T02:28:23.390Z,43.80
2018-05-25T02:30:51.820Z,40.43
2018-05-25T02:33:19.577Z,38.80
2018-05-25T02:35:47.121Z,34.23
2018-05-25T02:38:14.692Z,36.13
2018-05-25T02:40:42.198Z,37.90
2018-05-25T02:43:09.829Z,38.37
2018-05-25T02:45:37.503Z,41.90
2018-05-25T02:48:05.410Z,42.67
2018-05-25T02:50:32.991Z,35.87
2018-05-25T02:53:00.692Z,38.00
2018-05-25T02:55:28.221Z,39.30
2018-05-25T02:57:55.911Z,38.17
2018-05-25T03:00:23.427Z,35.07
2018-05-25T03:02:51.849Z,32.40
2018-05-25T03:05:19.424Z,29.13
2018-05-25T03:07:47.148Z,30.23
2018-05-25T03:10:16.540Z,27.40
2018-05-25T03:12:44.276Z,29.50
2018-05-25T03:15:12.585Z,28.33
2018-05-25T03:17:40.883Z,31.97
2018-05-25T03:20:08.535Z,30.20
2018-05-25T03:22:37.818Z,29.30
2018-05-25T03:25:06.713Z,29.10
2018-05-25T03:27:34.285Z,31.97
2018-05-25T03:30:03.149Z,31.87
2018-05-25T03:32:30.813Z,33.87
2018-05-25T03:34:58.398Z,33.70
2018-05-25T03:37:26.744Z,32.63
2018-05-25T03:39:55.119Z,34.30
2018-05-25T03:42:23.451Z,35.67
2018-05-25T03:44:51.877Z,32.77
2018-05-25T03:47:21.439Z,35.87
2018-05-25T03:49:50.611Z,36.80
2018-05-25T03:52:18.134Z,34.90
2018-05-25T03:54:46.808Z,39.60
2018-05-25T03:57:15.100Z,39.90
2018-05-25T03:59:55.200Z,40.77
2018-05-25T04:02:25.463Z,42.80
2018-05-25T04:04:52.979Z,37.80
2018-05-25T04:07:21.568Z,40.77
2018-05-25T04:09:49.288Z,36.43
2018-05-25T04:12:17.820Z,41.70
2018-05-25T04:14:45.481Z,41.20
2018-05-25T04:17:13.168Z,41.40
2018-05-25T04:19:40.706Z,43.87
2018-05-25T04:22:09.007Z,41.90
2018-05-25T04:24:36.526Z,42.80
2018-05-25T04:27:04.035Z,44.07
2018-05-25T04:29:31.556Z,46.20
2018-05-25T04:31:59.069Z,43.57
2018-05-25T04:34:27.363Z,44.60
2018-05-25T04:36:54.880Z,47.27
2018-05-25T04:39:22.492Z,45.17
2018-05-25T04:41:50.005Z,51.73
2018-05-25T04:44:17.528Z,47.30
2018-05-25T04:46:45.060Z,46.40
2018-05-25T04:49:16.158Z,49.53
2018-05-25T04:51:43.981Z,48.67
2018-05-25T04:54:11.559Z,50.10
2018-05-25T04:56:40.920Z,51.70
2018-05-25T04:59:09.439Z,48.70
2018-05-25T05:01:37.198Z,51.40
2018-05-25T05:04:04.715Z,45.67
2018-05-25T05:06:33.232Z,49.30
2018-05-25T05:09:00.769Z,50.07
2018-05-25T05:11:29.182Z,47.90
2018-05-25T05:13:56.884Z,49.07
2018-05-25T05:16:24.420Z,49.17
2018-05-25T05:18:51.947Z,47.37
2018-05-25T05:21:19.551Z,49.30
2018-05-25T05:23:47.270Z,49.30
2018-05-25T05:26:15.624Z,48.07
2018-05-25T05:28:43.917Z,49.07
2018-05-25T05:31:11.606Z,50.73
2018-05-25T05:33:39.309Z,48.17
2018-05-25T05:36:07.986Z,53.80
2018-05-25T05:38:35.756Z,55.47
2018-05-25T06:52:27.871Z,31.20
2018-05-25T06:54:55.718Z,30.05
2018-05-25T06:57:23.523Z,28.10
2018-05-25T06:59:51.200Z,28.70
2018-05-25T07:02:18.727Z,27.90
2018-05-25T07:04:46.413Z,25.60
2018-05-25T07:07:13.971Z,26.15
2018-05-25T07:09:42.251Z,25.70
2018-05-25T07:12:09.979Z,23.40
2018-05-25T07:14:37.487Z,23.35
2018-05-25T07:17:06.011Z,22.60
2018-05-25T07:19:33.515Z,23.30
2018-05-25T07:24:28.877Z,22.10
2018-05-25T08:11:12.131Z,13.50
2018-05-25T08:13:39.631Z,15.70
2018-05-25T08:16:07.940Z,15.57
2018-05-25T08:21:02.526Z,13.73
2018-05-25T08:23:30.046Z,13.90
2018-05-25T08:25:57.552Z,12.10
2018-05-25T08:28:25.063Z,12.73
2018-05-25T08:30:52.588Z,12.30
2018-05-25T08:33:20.084Z,11.10
2018-05-25T08:35:47.614Z,10.70
2018-05-25T08:38:15.176Z,10.93
2018-05-25T08:40:42.850Z,10.00
2018-05-25T08:43:10.933Z,9.80
2018-05-25T08:45:38.770Z,10.60
2018-05-25T08:48:06.267Z,8.80
2018-05-25T10:09:15.751Z,7.10
2018-05-25T10:14:11.212Z,7.40
2018-05-25T10:21:34.727Z,8.90
2018-05-25T10:24:02.703Z,9.90
2018-05-25T10:33:51.801Z,10.67
2018-05-25T10:36:20.482Z,9.15
2018-05-25T10:38:48.149Z,11.80
2018-05-25T10:46:15.829Z,11.10
2018-05-25T10:48:43.511Z,11.00
2018-05-25T10:51:11.117Z,10.77
2018-05-25T10:53:38.677Z,11.03
2018-05-25T10:56:08.244Z,15.23
2018-05-25T10:58:35.794Z,12.63
2018-05-25T11:01:03.441Z,12.93
2018-05-25T11:03:30.973Z,10.50
2018-05-25T11:08:26.103Z,7.70
2018-05-25T11:30:33.588Z,8.10
2018-05-25T11:40:23.111Z,10.27
2018-05-25T11:42:50.643Z,9.37
2018-05-25T11:45:19.211Z,8.97
2018-05-25T11:47:48.124Z,8.20
2018-05-25T11:50:15.631Z,7.90
2018-05-25T11:52:45.423Z,7.27
2018-05-25T11:55:13.024Z,9.60
2018-05-25T11:57:40.618Z,7.80
2018-05-25T12:00:08.163Z,9.80
2018-05-25T12:02:36.630Z,9.40
2018-05-25T12:05:05.247Z,9.20
2018-05-25T12:19:51.727Z,7.73
2018-05-25T12:27:16.403Z,8.90
2018-05-25T12:34:39.655Z,9.70
2018-05-25T12:39:36.167Z,8.80
2018-05-25T12:42:04.463Z,7.27
2018-05-25T12:44:39.869Z,7.07
2018-05-25T12:47:07.677Z,8.37
2018-05-25T12:49:36.267Z,8.23
2018-05-25T12:52:03.964Z,7.10
2018-05-25T12:54:31.471Z,8.00
2018-05-25T12:57:00.388Z,7.10
2018-05-25T12:59:28.784Z,7.30
2018-05-25T13:01:56.386Z,6.33
2018-05-25T13:04:24.823Z,6.57
2018-05-25T13:06:52.411Z,5.87
2018-05-25T13:09:19.972Z,7.30
2018-05-25T13:11:48.361Z,7.37
2018-05-25T13:14:17.882Z,6.40
2018-05-25T13:16:45.455Z,7.30
2018-05-25T13:19:13.273Z,7.67
2018-05-25T13:21:40.885Z,6.73
2018-05-25T13:24:08.545Z,6.30
2018-05-25T13:26:36.827Z,5.70
2018-05-25T13:29:04.380Z,7.00
2018-05-25T13:31:32.969Z,5.40
2018-05-25T13:36:29.795Z,4.60
2018-05-25T13:46:22.476Z,4.70
2018-05-25T13:51:17.371Z,8.30
2018-05-25T14:23:19.750Z,9.10
2018-05-25T14:30:42.917Z,9.90
2018-05-25T14:33:10.503Z,9.77
2018-05-25T14:35:38.111Z,8.80
2018-05-25T14:38:05.677Z,9.20
2018-05-25T14:40:34.331Z,9.27
2018-05-25T14:43:02.765Z,10.97
2018-05-25T14:45:33.460Z,11.23
2018-05-25T14:48:01.727Z,10.13
2018-05-25T14:50:30.100Z,9.30
2018-05-25T14:52:57.840Z,9.70
2018-05-25T14:55:25.357Z,10.53
2018-05-25T14:57:55.714Z,10.10
2018-05-25T15:00:23.731Z,10.10
2018-05-25T15:02:51.648Z,9.37
2018-05-25T15:05:26.935Z,9.83
2018-05-25T15:08:03.806Z,9.17
2018-05-25T15:10:32.941Z,9.80
2018-05-25T15:13:04.381Z,8.77
2018-05-25T15:15:35.190Z,9.50
2018-05-25T15:18:04.338Z,9.30
2018-05-25T15:20:33.160Z,8.87
2018-05-25T15:23:01.117Z,10.13
2018-05-25T15:25:28.784Z,9.63
2018-05-25T15:27:57.379Z,9.03
2018-05-25T15:30:25.657Z,11.93
2018-05-25T15:32:55.767Z,9.87
2018-05-25T15:35:40.835Z,7.93
2018-05-25T15:38:11.907Z,9.30
2018-05-25T15:40:44.719Z,9.00
2018-05-25T15:43:18.855Z,7.80
2018-05-25T15:45:46.960Z,9.80
2018-05-25T15:48:17.429Z,8.83
2018-05-25T15:50:46.336Z,8.70
2018-05-25T15:53:16.233Z,9.63
2018-05-25T15:55:44.012Z,9.57
2018-05-25T15:58:15.322Z,10.30
2018-05-25T16:03:18.870Z,8.37
2018-05-25T16:05:50.664Z,9.10
2018-05-25T16:08:22.569Z,8.17
2018-05-25T16:10:53.960Z,9.30
2018-05-25T16:13:25.137Z,9.70
2018-05-25T16:15:53.090Z,9.85
2018-05-25T16:18:30.380Z,10.87
2018-05-25T16:21:09.547Z,9.80
2018-05-25T16:23:40.233Z,8.70
2018-05-25T16:26:10.150Z,8.20
2018-05-25T16:28:38.738Z,8.73
2018-05-25T16:31:06.908Z,8.63
2018-05-25T16:33:35.477Z,9.07
2018-05-25T16:36:05.591Z,7.80
2018-05-25T16:38:35.931Z,8.20
2018-05-25T16:41:07.737Z,7.10
2018-05-25T16:43:41.067Z,9.27
2018-05-25T16:46:09.626Z,9.30
2018-05-25T16:48:42.652Z,9.10
2018-05-25T16:51:10.244Z,8.00
2018-05-25T16:53:38.454Z,8.70
2018-05-25T16:56:10.511Z,8.90
2018-05-25T16:58:39.410Z,8.17
2018-05-25T17:01:12.750Z,9.37
2018-05-25T17:06:18.255Z,7.90
2018-05-25T17:08:48.334Z,8.00
2018-05-25T17:11:17.107Z,9.50
2018-05-25T17:16:21.644Z,10.33
2018-05-25T17:18:50.906Z,8.80
2018-05-25T17:21:18.531Z,9.40
2018-05-25T17:23:48.518Z,9.73
2018-05-25T17:26:23.339Z,9.47
2018-05-25T17:28:52.597Z,9.07
2018-05-25T17:31:21.241Z,12.23
2018-05-25T17:36:23.714Z,8.60
2018-05-25T17:38:54.920Z,21.57
2018-05-25T17:41:31.980Z,8.30
2018-05-25T17:44:03.522Z,9.47
2018-05-25T17:46:39.869Z,9.03
2018-05-25T17:49:11.904Z,9.37
2018-05-25T17:51:45.349Z,26.10
2018-05-25T17:54:14.500Z,34.40
2018-05-25T17:56:46.534Z,46.50
2018-05-25T17:59:18.428Z,51.00
2018-05-25T18:01:50.008Z,47.97
2018-05-25T18:04:24.923Z,51.50
2018-05-25T18:07:04.515Z,50.10
2018-05-25T18:09:38.630Z,50.37
2018-05-25T18:12:09.042Z,62.90
2018-05-25T18:14:40.378Z,60.60
2018-05-25T18:17:09.896Z,66.10
2018-05-25T18:19:45.579Z,69.80
2018-05-25T18:22:17.424Z,68.77
2018-05-25T18:24:49.946Z,67.47
2018-05-25T18:27:21.740Z,73.73
2018-05-25T18:29:56.384Z,64.90
2018-05-25T18:32:35.201Z,66.20
2018-05-25T18:35:05.237Z,68.80
2018-05-25T18:37:35.086Z,71.17
2018-05-25T18:40:07.182Z,70.53
2018-05-25T18:42:35.828Z,71.80
2018-05-25T18:45:07.025Z,64.93
2018-05-25T18:47:43.182Z,73.77
2018-05-25T18:50:11.408Z,71.93
2018-05-25T18:52:42.735Z,79.30
2018-05-25T18:55:10.855Z,77.60
2018-05-25T18:57:43.210Z,78.87
2018-05-25T19:00:14.027Z,79.07
2018-05-25T19:02:43.727Z,81.57
2018-05-25T19:05:16.385Z,79.90
2018-05-25T19:07:46.949Z,80.07
2018-05-25T19:10:17.889Z,80.27
2018-05-25T19:12:48.061Z,80.53
2018-05-25T19:15:16.596Z,86.05
2018-05-25T19:17:47.683Z,84.65
2018-05-25T19:20:22.657Z,90.55
2018-05-25T19:22:55.225Z,89.40
2018-05-25T19:25:24.241Z,86.40
2018-05-25T19:27:54.535Z,89.10
2018-05-25T19:30:23.708Z,89.37
2018-05-25T19:32:55.344Z,89.03
2018-05-25T19:35:26.929Z,89.50
2018-05-25T19:37:56.229Z,93.93
2018-05-25T19:40:24.643Z,93.17
2018-05-25T19:42:53.991Z,98.80
2018-05-25T19:45:24.081Z,95.20
2018-05-25T19:47:54.889Z,92.60
2018-05-25T19:50:23.355Z,99.70
2018-05-25T19:52:51.840Z,92.70
2018-05-25T19:55:20.125Z,91.80
2018-05-25T19:57:49.193Z,99.55
2018-05-25T20:00:17.609Z,97.13
2018-05-25T20:02:45.218Z,98.03
2018-05-25T20:05:12.841Z,101.80
2018-05-25T20:07:44.198Z,100.73
2018-05-25T20:10:13.475Z,103.70
2018-05-25T20:12:46.367Z,101.63
2018-05-25T20:15:20.944Z,103.23
2018-05-25T20:17:52.931Z,102.93
2018-05-25T20:20:25.937Z,105.40
2018-05-25T20:23:00.163Z,105.60
2018-05-25T20:25:30.589Z,103.90
2018-05-25T20:28:03.227Z,105.13
2018-05-25T20:30:33.518Z,102.80
2018-05-25T20:33:05.830Z,116.90
2018-05-25T20:35:34.239Z,106.13
2018-05-25T20:38:12.473Z,109.30
2018-05-25T20:40:47.484Z,107.40
2018-05-25T20:43:18.470Z,110.37
2018-05-25T20:45:48.076Z,110.10
2018-05-25T20:48:15.590Z,113.65
2018-05-25T20:50:46.029Z,110.17
2018-05-25T20:56:14.153Z,110.80
2018-05-25T20:58:41.820Z,114.20
2018-05-25T21:01:12.566Z,116.65
2018-05-25T21:03:40.155Z,110.95
2018-05-25T21:06:08.804Z,117.37
2018-05-25T21:08:36.509Z,115.85
2018-05-25T21:11:05.190Z,122.35
2018-05-25T21:13:33.040Z,119.35
2018-05-25T21:16:03.322Z,116.70
2018-05-25T21:18:31.276Z,119.73
2018-05-25T21:21:00.795Z,122.77
2018-05-25T21:23:28.585Z,121.30
2018-05-25T21:25:57.535Z,120.30
2018-05-25T21:28:34.977Z,121.17
2018-05-25T21:31:03.383Z,121.15
2018-05-25T21:36:08.417Z,118.60
2018-05-25T21:38:36.004Z,120.47
2018-05-25T21:41:03.562Z,115.50
2018-05-25T21:43:31.151Z,117.23
2018-05-25T21:45:59.567Z,118.70
2018-05-25T21:48:28.568Z,119.30
2018-05-25T21:50:57.025Z,122.77
2018-05-25T21:53:24.978Z,121.10
2018-05-25T21:55:55.847Z,125.70
2018-05-25T21:58:24.619Z,122.20
2018-05-25T22:00:52.943Z,117.40
2018-05-25T22:03:20.462Z,122.20
2018-05-25T22:05:49.147Z,125.10
2018-05-25T22:08:17.702Z,121.97
2018-05-25T22:10:46.006Z,128.60
2018-05-25T22:13:14.798Z,126.30
2018-05-25T22:15:42.331Z,121.47
2018-05-25T22:18:09.888Z,122.35
2018-05-25T22:20:38.191Z,118.77
2018-05-25T22:23:05.735Z,121.10
2018-05-25T22:25:33.250Z,123.50
2018-05-25T22:28:02.134Z,122.65
2018-05-25T22:30:29.723Z,119.15
2018-05-25T22:32:58.016Z,131.55
2018-05-25T22:35:25.555Z,129.15
2018-05-25T22:37:54.784Z,124.50
2018-05-25T22:40:24.420Z,126.65
2018-05-25T22:43:03.935Z,124.00
2018-05-25T22:45:43.771Z,127.10
2018-05-25T22:48:23.342Z,124.05
2018-05-25T22:51:02.824Z,126.37
2018-05-25T22:53:35.689Z,121.30
2018-05-25T22:56:03.240Z,127.50
2018-05-25T22:58:30.777Z,130.97
2018-05-25T23:00:58.321Z,129.00
2018-05-25T23:03:26.287Z,132.20
2018-05-25T23:05:54.802Z,128.25
2018-05-25T23:08:22.370Z,132.80
2018-05-25T23:10:50.683Z,134.33
2018-05-25T23:13:19.793Z,130.10
2018-05-25T23:15:49.223Z,132.33
2018-05-25T23:18:17.102Z,131.90
2018-05-25T23:20:45.432Z,126.97
2018-05-25T23:23:15.101Z,130.25
2018-05-25T23:25:43.443Z,127.83
2018-05-25T23:28:13.155Z,128.45
2018-05-25T23:30:41.683Z,130.55
2018-05-25T23:33:10.947Z,130.50
2018-05-25T23:35:41.227Z,131.60
2018-05-25T23:38:08.756Z,128.25
2018-05-25T23:40:36.499Z,138.75
2018-05-25T23:43:04.035Z,135.17
2018-05-25T23:45:31.557Z,134.00
2018-05-25T23:47:59.435Z,135.30
2018-05-25T23:50:27.082Z,135.20
2018-05-25T23:52:56.615Z,135.50
2018-05-25T23:55:24.912Z,135.83
2018-05-25T23:57:52.489Z,136.25
